Time;durP1;ratioP1;P1;durP2;ratioP2;P2;SDS_P1;SDS_P2;PMS_P1;PMS_P2;Temp;Humidity;BMP_temperature;BMP_pressure;BME280_temperature;BME280_humidity;BME280_pressure;Samples;Min_cycle;Max_cycle;Signal;HPM_P1;HPM_P2
2023/04/09 00:02:03;;;;;;;98.37;44.40;;;8.00;99.90;;;;;;5009220;28;20232;-63
2023/04/09 00:04:31;;;;;;;88.50;43.80;;;8.00;99.90;;;;;;5002047;28;20689;-63
2023/04/09 00:06:58;;;;;;;92.78;46.78;;;8.00;99.90;;;;;;5006786;28;21419;-63
2023/04/09 00:09:25;;;;;;;88.20;43.93;;;8.00;99.90;;;;;;5016528;28;20198;-63
2023/04/09 00:11:51;;;;;;;90.45;46.03;;;8.20;99.90;;;;;;4998101;28;20309;-63
2023/04/09 00:14:18;;;;;;;82.77;43.03;;;8.00;99.90;;;;;;5014211;28;20213;-63
2023/04/09 00:16:45;;;;;;;91.07;45.23;;;8.10;99.90;;;;;;5009573;28;20217;-63
2023/04/09 00:19:12;;;;;;;87.93;43.10;;;8.10;99.90;;;;;;5008144;28;20689;-63
2023/04/09 00:21:40;;;;;;;93.90;43.40;;;8.10;99.90;;;;;;5006141;28;20209;-63
2023/04/09 00:24:07;;;;;;;86.00;42.80;;;8.10;99.90;;;;;;5019620;28;20296;-64
2023/04/09 00:26:34;;;;;;;94.20;44.90;;;8.10;99.90;;;;;;4996686;28;20205;-63
2023/04/09 00:29:01;;;;;;;81.63;42.70;;;8.00;99.90;;;;;;5018725;28;20197;-64
2023/04/09 00:31:27;;;;;;;79.83;41.33;;;8.10;99.90;;;;;;4996315;28;20231;-63
2023/04/09 00:33:55;;;;;;;84.13;42.33;;;8.00;99.90;;;;;;5015765;28;20229;-63
2023/04/09 00:36:21;;;;;;;81.97;41.00;;;8.00;99.90;;;;;;5028082;28;20704;-63
2023/04/09 00:38:52;;;;;;;81.88;41.22;;;8.10;99.90;;;;;;5051132;28;22302;-64
2023/04/09 00:41:19;;;;;;;87.55;40.67;;;8.10;99.90;;;;;;5026677;28;20262;-63
2023/04/09 00:43:46;;;;;;;86.15;42.03;;;8.10;99.90;;;;;;5061432;28;20201;-63
2023/04/09 00:46:13;;;;;;;77.37;41.90;;;8.10;99.90;;;;;;5050933;28;22509;-63
2023/04/09 00:48:40;;;;;;;90.57;42.95;;;8.10;99.90;;;;;;5048554;28;20197;-63
2023/04/09 00:51:08;;;;;;;95.63;44.17;;;8.10;99.90;;;;;;5037548;28;20201;-63
2023/04/09 00:53:35;;;;;;;86.88;39.72;;;8.10;99.90;;;;;;5052849;28;20220;-63
2023/04/09 00:56:05;;;;;;;87.68;42.47;;;8.10;99.90;;;;;;5029889;28;20239;-63
2023/04/09 00:58:32;;;;;;;90.07;43.38;;;8.10;99.90;;;;;;5061967;28;20222;-64
2023/04/09 01:00:58;;;;;;;84.32;42.45;;;8.10;99.90;;;;;;5053563;28;20299;-63
2023/04/09 01:03:25;;;;;;;85.30;42.65;;;8.10;99.90;;;;;;5048758;28;20207;-63
2023/04/09 01:06:00;;;;;;;83.87;41.87;;;8.10;99.90;;;;;;5050276;28;20201;-63
2023/04/09 01:08:36;;;;;;;81.05;40.92;;;8.00;99.90;;;;;;5063453;28;20695;-63
2023/04/09 01:11:14;;;;;;;82.47;41.10;;;8.00;99.90;;;;;;5026363;28;20597;-64
2023/04/09 01:13:47;;;;;;;86.55;41.33;;;8.00;99.90;;;;;;5064080;28;20204;-63
2023/04/09 01:16:16;;;;;;;86.50;41.47;;;8.00;99.90;;;;;;5048925;28;21057;-63
2023/04/09 01:18:48;;;;;;;81.40;42.10;;;8.00;99.90;;;;;;5046666;28;20675;-63
2023/04/09 01:21:20;;;;;;;81.93;41.53;;;8.00;99.90;;;;;;5052950;28;20192;-63
2023/04/09 01:23:58;;;;;;;84.50;40.00;;;8.10;99.90;;;;;;5056439;28;20203;-63
2023/04/09 01:26:41;;;;;;;78.57;38.47;;;8.10;99.90;;;;;;5059089;28;20196;-63
2023/04/09 01:29:10;;;;;;;82.03;38.45;;;8.10;99.90;;;;;;5032013;28;20212;-64
2023/04/09 01:31:39;;;;;;;82.40;40.60;;;8.10;99.90;;;;;;5048077;28;20227;-63
2023/04/09 01:34:08;;;;;;;75.47;39.37;;;8.10;99.90;;;;;;5036851;28;20800;-63
2023/04/09 01:36:37;;;;;;;86.47;39.22;;;8.10;99.90;;;;;;5051630;28;20236;-63
2023/04/09 01:39:05;;;;;;;79.25;38.88;;;8.10;99.90;;;;;;5039263;28;20204;-64
2023/04/09 01:41:34;;;;;;;83.93;38.53;;;8.10;99.90;;;;;;5062192;28;20207;-63
2023/04/09 01:44:02;;;;;;;79.57;37.80;;;8.10;99.90;;;;;;5027478;28;20828;-64
2023/04/09 01:46:31;;;;;;;67.05;37.08;;;8.10;99.90;;;;;;5059276;28;20218;-63
2023/04/09 01:48:59;;;;;;;79.67;37.53;;;8.00;99.90;;;;;;5039863;28;20208;-64
2023/04/09 01:51:27;;;;;;;71.70;38.53;;;8.10;99.90;;;;;;5041088;28;20577;-63
2023/04/09 01:53:54;;;;;;;75.22;37.38;;;8.10;99.90;;;;;;5052207;28;20208;-63
2023/04/09 01:56:21;;;;;;;81.60;37.35;;;8.10;99.90;;;;;;5064587;28;20652;-63
2023/04/09 01:58:48;;;;;;;85.65;37.78;;;8.00;99.90;;;;;;5030421;28;20220;-63
2023/04/09 02:01:24;;;;;;;76.27;38.90;;;8.00;99.90;;;;;;5041214;28;20223;-63
2023/04/09 02:03:56;;;;;;;77.63;35.33;;;8.00;99.90;;;;;;5049422;28;20224;-63
2023/04/09 02:06:31;;;;;;;66.63;35.63;;;8.00;99.90;;;;;;5051660;28;20348;-63
2023/04/09 02:09:00;;;;;;;78.43;36.50;;;8.00;99.90;;;;;;5047717;28;20207;-64
2023/04/09 02:11:29;;;;;;;78.03;37.67;;;8.00;99.90;;;;;;5067168;28;20196;-64
2023/04/09 02:13:58;;;;;;;76.75;37.17;;;8.00;99.90;;;;;;5033676;28;20208;-63
2023/04/09 02:16:27;;;;;;;84.97;35.83;;;8.10;99.90;;;;;;5060702;28;20965;-63
2023/04/09 02:18:55;;;;;;;67.57;35.97;;;8.00;99.90;;;;;;5056863;28;20262;-63
2023/04/09 02:21:23;;;;;;;72.55;34.53;;;8.00;99.90;;;;;;5054297;28;20207;-63
2023/04/09 02:23:49;;;;;;;71.97;36.00;;;7.90;99.90;;;;;;5059131;28;20200;-63
2023/04/09 02:26:16;;;;;;;66.73;34.07;;;7.90;99.90;;;;;;5066711;28;20868;-63
2023/04/09 02:28:43;;;;;;;68.80;33.05;;;7.90;99.90;;;;;;5069629;28;20310;-64
2023/04/09 02:31:10;;;;;;;71.97;33.22;;;7.90;99.90;;;;;;5026849;28;20204;-63
2023/04/09 02:33:36;;;;;;;66.93;33.23;;;7.90;99.90;;;;;;5066099;28;20249;-63
2023/04/09 02:36:05;;;;;;;72.30;34.37;;;7.80;99.90;;;;;;5046743;28;20242;-63
2023/04/09 02:38:32;;;;;;;65.97;32.57;;;7.80;99.90;;;;;;5057451;28;20549;-63
2023/04/09 02:40:59;;;;;;;76.93;34.03;;;7.80;99.90;;;;;;5066113;28;20208;-63
2023/04/09 02:43:26;;;;;;;69.37;33.23;;;7.80;99.90;;;;;;5064216;28;20200;-63
2023/04/09 02:45:53;;;;;;;67.80;32.87;;;7.90;99.90;;;;;;5037646;28;20204;-63
2023/04/09 02:48:19;;;;;;;67.03;32.47;;;7.80;99.90;;;;;;5065127;28;20203;-63
2023/04/09 02:50:46;;;;;;;68.25;33.58;;;7.90;99.90;;;;;;5052879;28;20209;-64
2023/04/09 02:53:14;;;;;;;70.53;32.83;;;7.90;99.90;;;;;;5056372;28;20210;-63
2023/04/09 02:55:41;;;;;;;66.15;31.90;;;7.90;99.90;;;;;;5059020;28;20318;-63
2023/04/09 02:58:08;;;;;;;61.10;32.78;;;7.80;99.90;;;;;;5060120;28;20700;-63
2023/04/09 03:00:35;;;;;;;63.53;33.72;;;7.80;99.90;;;;;;5064077;28;20201;-63
2023/04/09 03:03:01;;;;;;;63.77;32.43;;;7.90;99.90;;;;;;5038050;28;20250;-63
2023/04/09 03:05:28;;;;;;;70.38;32.45;;;7.80;99.90;;;;;;5066392;28;20227;-63
2023/04/09 03:07:55;;;;;;;60.00;31.90;;;7.80;99.90;;;;;;5057855;28;20761;-63
2023/04/09 03:10:23;;;;;;;61.28;31.00;;;7.80;99.90;;;;;;5054072;28;20201;-63
2023/04/09 03:12:50;;;;;;;66.27;30.93;;;7.80;99.90;;;;;;5067531;28;20207;-63
2023/04/09 03:15:17;;;;;;;66.70;30.95;;;7.80;99.90;;;;;;5063579;28;20209;-64
2023/04/09 03:17:44;;;;;;;56.25;29.50;;;7.80;99.90;;;;;;5039982;28;20593;-63
2023/04/09 03:20:11;;;;;;;59.58;29.00;;;7.80;99.90;;;;;;5066115;28;20249;-64
2023/04/09 03:22:38;;;;;;;59.60;29.10;;;7.80;99.90;;;;;;5057717;28;20204;-64
2023/04/09 03:25:05;;;;;;;54.60;29.85;;;7.80;99.90;;;;;;5053572;28;20204;-64
2023/04/09 03:27:34;;;;;;;57.57;30.57;;;7.80;99.90;;;;;;5069779;28;20196;-64
2023/04/09 03:30:01;;;;;;;52.72;28.73;;;7.80;99.90;;;;;;5067641;28;20200;-63
2023/04/09 03:32:28;;;;;;;59.73;29.23;;;7.80;99.90;;;;;;5033010;28;20273;-63
2023/04/09 03:34:54;;;;;;;58.40;28.60;;;7.80;99.90;;;;;;5063226;28;20200;-63
2023/04/09 03:37:21;;;;;;;60.77;30.30;;;7.80;99.90;;;;;;5052440;28;20334;-63
2023/04/09 03:39:48;;;;;;;52.58;28.30;;;7.80;99.90;;;;;;5064136;28;20203;-64
2023/04/09 03:42:15;;;;;;;54.27;29.73;;;7.80;99.90;;;;;;5053515;28;20208;-63
2023/04/09 03:44:43;;;;;;;55.37;30.07;;;7.80;99.90;;;;;;5064035;28;20207;-63
2023/04/09 03:47:09;;;;;;;52.08;28.73;;;7.80;99.90;;;;;;5033264;28;21042;-63
2023/04/09 03:49:36;;;;;;;55.17;29.35;;;7.80;99.90;;;;;;5063140;28;20207;-64
2023/04/09 03:52:03;;;;;;;60.85;30.58;;;7.80;99.90;;;;;;5049875;28;20193;-63
2023/04/09 03:54:30;;;;;;;58.25;28.77;;;7.80;99.90;;;;;;5066531;28;20355;-63
2023/04/09 03:56:57;;;;;;;58.40;29.57;;;7.80;99.90;;;;;;5055960;28;20233;-63
2023/04/09 03:59:25;;;;;;;54.35;29.00;;;7.80;99.90;;;;;;5058230;28;20200;-63
2023/04/09 04:01:53;;;;;;;52.53;29.02;;;7.80;99.90;;;;;;5055618;28;20196;-63
2023/04/09 04:04:20;;;;;;;60.78;29.02;;;7.70;99.90;;;;;;5047156;28;20200;-63
2023/04/09 04:06:46;;;;;;;62.28;29.08;;;7.80;99.90;;;;;;5064396;28;20756;-63
2023/04/09 04:09:13;;;;;;;62.90;29.92;;;7.80;99.90;;;;;;5051541;28;20224;-63
2023/04/09 04:11:40;;;;;;;51.05;27.92;;;7.80;99.90;;;;;;5065676;28;20704;-64
2023/04/09 04:14:07;;;;;;;58.85;30.27;;;7.80;99.90;;;;;;5053759;28;20211;-63
2023/04/09 04:16:33;;;;;;;54.78;28.63;;;7.80;99.90;;;;;;5062983;28;20274;-63
2023/04/09 04:19:02;;;;;;;48.92;28.90;;;7.80;99.90;;;;;;5036393;28;20215;-63
2023/04/09 04:21:28;;;;;;;55.33;27.65;;;7.80;99.90;;;;;;5067698;28;20208;-63
2023/04/09 04:23:55;;;;;;;53.63;26.97;;;7.80;99.90;;;;;;5054810;28;20202;-64
2023/04/09 04:26:22;;;;;;;53.87;28.57;;;7.80;99.90;;;;;;5061405;28;20200;-63
2023/04/09 04:28:49;;;;;;;53.17;29.30;;;7.80;99.90;;;;;;5052022;28;20204;-63
2023/04/09 04:31:16;;;;;;;63.08;30.48;;;7.80;99.90;;;;;;5052853;28;20333;-63
2023/04/09 04:33:43;;;;;;;52.15;29.42;;;7.80;99.90;;;;;;5033196;28;20204;-63
2023/04/09 04:36:12;;;;;;;58.93;27.90;;;7.70;99.90;;;;;;5053412;28;20282;-63
2023/04/09 04:38:40;;;;;;;60.22;29.52;;;7.70;99.90;;;;;;5054123;28;20207;-64
2023/04/09 04:41:07;;;;;;;57.10;29.20;;;7.70;99.90;;;;;;5055461;28;20194;-63
2023/04/09 04:43:34;;;;;;;65.70;31.00;;;7.70;99.90;;;;;;5063962;28;20197;-63
2023/04/09 04:46:01;;;;;;;59.07;29.63;;;7.70;99.90;;;;;;5036292;28;20207;-64
2023/04/09 04:48:30;;;;;;;60.10;30.97;;;7.70;99.90;;;;;;5032035;28;20675;-63
2023/04/09 04:50:58;;;;;;;65.60;32.03;;;7.70;99.90;;;;;;5055471;28;20240;-63
2023/04/09 04:53:27;;;;;;;54.97;30.00;;;7.70;99.90;;;;;;5064848;28;20208;-63
2023/04/09 04:55:54;;;;;;;59.20;29.87;;;7.70;99.90;;;;;;5052509;28;20211;-63
2023/04/09 04:58:21;;;;;;;57.30;30.75;;;7.70;99.90;;;;;;5065126;28;20208;-63
2023/04/09 05:00:47;;;;;;;58.80;29.17;;;7.70;99.90;;;;;;5053430;28;20200;-64
2023/04/09 05:03:14;;;;;;;65.30;32.23;;;7.70;99.90;;;;;;5061766;28;20193;-63
2023/04/09 05:05:41;;;;;;;60.10;29.20;;;7.70;99.90;;;;;;5036955;28;20208;-64
2023/04/09 05:08:08;;;;;;;57.72;28.65;;;7.60;99.90;;;;;;5048330;28;20220;-63
2023/04/09 05:10:36;;;;;;;59.37;29.90;;;7.60;99.90;;;;;;5054130;28;20207;-63
2023/04/09 05:13:03;;;;;;;61.27;28.73;;;7.60;99.90;;;;;;5060787;28;20648;-63
2023/04/09 05:15:30;;;;;;;55.53;29.40;;;7.70;99.90;;;;;;5063724;28;20375;-63
2023/04/09 05:17:57;;;;;;;55.38;27.80;;;7.70;99.90;;;;;;5051572;28;20311;-64
2023/04/09 05:20:23;;;;;;;55.13;27.80;;;7.70;99.90;;;;;;5037469;28;20890;-63
2023/04/09 05:22:51;;;;;;;56.43;28.63;;;7.70;99.90;;;;;;5058046;28;20442;-64
2023/04/09 05:25:17;;;;;;;54.87;30.13;;;7.70;99.90;;;;;;5041017;28;20211;-63
2023/04/09 05:27:46;;;;;;;53.92;28.17;;;7.70;99.90;;;;;;5060273;28;20192;-64
2023/04/09 05:30:12;;;;;;;47.23;27.00;;;7.70;99.90;;;;;;5060914;28;20203;-64
2023/04/09 05:32:39;;;;;;;66.82;27.02;;;7.70;99.90;;;;;;5050564;28;20207;-63
2023/04/09 05:35:07;;;;;;;56.27;27.63;;;7.70;99.90;;;;;;5051323;28;20243;-63
2023/04/09 05:37:34;;;;;;;52.33;26.30;;;7.70;99.90;;;;;;5037380;28;20723;-64
2023/04/09 05:40:01;;;;;;;47.03;26.70;;;7.70;99.90;;;;;;5052163;28;20217;-63
2023/04/09 05:42:28;;;;;;;51.78;24.75;;;7.60;99.90;;;;;;5049405;28;20204;-63
2023/04/09 05:44:56;;;;;;;48.67;25.37;;;7.70;99.90;;;;;;5063292;28;20227;-63
2023/04/09 05:47:23;;;;;;;47.60;24.45;;;7.70;99.90;;;;;;5067826;28;20200;-63
2023/04/09 05:49:50;;;;;;;41.87;21.23;;;7.70;99.90;;;;;;5054986;28;20192;-63
2023/04/09 05:52:17;;;;;;;41.63;21.57;;;7.70;99.90;;;;;;5037441;28;20204;-63
2023/04/09 05:54:44;;;;;;;42.28;20.83;;;7.70;99.90;;;;;;5054437;28;20200;-63
2023/04/09 05:57:10;;;;;;;39.90;21.13;;;7.70;99.90;;;;;;5049466;28;21107;-63
2023/04/09 05:59:37;;;;;;;41.03;22.30;;;7.70;99.90;;;;;;5062676;28;20192;-64
2023/04/09 06:02:06;;;;;;;39.80;20.73;;;7.70;99.90;;;;;;5052406;28;20227;-63
2023/04/09 06:04:33;;;;;;;38.97;20.20;;;7.70;99.90;;;;;;5043817;28;20230;-63
2023/04/09 06:07:00;;;;;;;34.60;19.47;;;7.80;99.90;;;;;;5027756;28;20219;-63
2023/04/09 06:09:27;;;;;;;39.60;19.20;;;7.80;99.90;;;;;;5048483;28;20226;-63
2023/04/09 06:11:54;;;;;;;35.10;18.87;;;7.80;99.90;;;;;;5030404;28;20224;-63
2023/04/09 06:14:21;;;;;;;32.30;17.83;;;7.90;99.90;;;;;;5049759;28;20220;-63
2023/04/09 06:16:48;;;;;;;33.23;18.67;;;7.90;99.50;;;;;;5056616;28;20255;-64
2023/04/09 06:19:17;;;;;;;28.23;15.87;;;7.90;98.50;;;;;;5059138;28;20212;-64
2023/04/09 06:21:44;;;;;;;32.57;16.53;;;7.90;97.20;;;;;;5055580;28;20708;-63
2023/04/09 06:24:11;;;;;;;29.17;17.87;;;8.00;96.00;;;;;;5025323;28;20492;-63
2023/04/09 06:26:38;;;;;;;37.85;17.73;;;8.00;95.30;;;;;;5061971;28;20228;-63
2023/04/09 06:29:05;;;;;;;29.33;17.53;;;8.00;95.00;;;;;;5040228;28;20231;-63
2023/04/09 06:31:33;;;;;;;31.02;17.98;;;8.10;95.10;;;;;;5045701;28;20216;-64
2023/04/09 06:34:00;;;;;;;32.38;17.73;;;8.10;95.20;;;;;;5057976;28;20196;-64
2023/04/09 06:36:29;;;;;;;27.35;17.33;;;8.20;95.40;;;;;;5056356;28;20234;-63
2023/04/09 06:38:56;;;;;;;28.80;17.43;;;8.20;95.30;;;;;;5022123;28;20292;-63
2023/04/09 06:41:23;;;;;;;32.17;17.23;;;8.30;94.30;;;;;;5056907;28;20301;-64
2023/04/09 06:43:50;;;;;;;31.52;16.17;;;8.30;94.00;;;;;;5035002;28;20357;-64
2023/04/09 06:46:19;;;;;;;29.85;16.55;;;8.30;92.10;;;;;;5047196;28;20290;-64
2023/04/09 06:48:46;;;;;;;28.00;16.10;;;8.30;90.20;;;;;;5053852;28;20220;-63
2023/04/09 06:51:13;;;;;;;32.50;16.70;;;8.30;87.20;;;;;;5048743;28;20231;-64
2023/04/09 06:53:42;;;;;;;31.08;15.43;;;8.40;84.90;;;;;;5029692;28;20232;-63
2023/04/09 06:56:09;;;;;;;33.40;16.63;;;8.40;81.70;;;;;;5047812;28;20219;-63
2023/04/09 06:58:36;;;;;;;28.80;15.23;;;8.40;77.70;;;;;;5051247;28;21047;-64
2023/04/09 07:01:03;;;;;;;27.23;14.40;;;8.40;73.30;;;;;;5051849;28;20224;-64
2023/04/09 07:03:30;;;;;;;30.00;16.10;;;8.40;66.10;;;;;;5066518;28;20203;-63
2023/04/09 07:05:57;;;;;;;23.92;14.48;;;8.40;58.90;;;;;;5041104;28;21027;-63
2023/04/09 07:08:24;;;;;;;25.92;14.57;;;8.50;56.40;;;;;;5019076;28;20228;-63
2023/04/09 07:10:53;;;;;;;30.02;16.55;;;8.50;49.90;;;;;;5061520;28;20296;-63
2023/04/09 07:13:20;;;;;;;24.10;15.45;;;8.50;49.50;;;;;;5029433;28;20225;-63
2023/04/09 07:15:47;;;;;;;25.88;15.80;;;8.50;49.30;;;;;;5037897;28;20673;-63
2023/04/09 07:18:14;;;;;;;28.93;15.83;;;8.50;50.60;;;;;;5047559;28;20238;-63
2023/04/09 07:20:41;;;;;;;23.08;14.57;;;8.60;43.20;;;;;;5069566;28;20207;-63
2023/04/09 07:23:07;;;;;;;22.73;13.67;;;8.60;42.30;;;;;;5059708;28;20223;-63
2023/04/09 07:25:35;;;;;;;25.30;14.00;;;8.70;37.10;;;;;;5042743;28;20226;-64
2023/04/09 07:28:03;;;;;;;23.17;13.43;;;8.70;40.50;;;;;;5071437;28;20287;-63
2023/04/09 07:30:30;;;;;;;26.05;13.15;;;8.70;31.30;;;;;;5050142;28;20756;-63
2023/04/09 07:32:57;;;;;;;23.52;13.50;;;8.60;27.00;;;;;;5055845;28;20291;-63
2023/04/09 07:35:24;;;;;;;23.27;13.73;;;8.70;29.90;;;;;;5046246;28;20204;-64
2023/04/09 07:37:51;;;;;;;23.92;13.40;;;8.70;34.30;;;;;;5057133;28;20236;-63
2023/04/09 07:40:18;;;;;;;24.92;13.07;;;8.80;37.20;;;;;;5031281;28;20205;-63
2023/04/09 07:42:45;;;;;;;20.27;13.40;;;8.80;36.30;;;;;;5061224;28;20210;-63
2023/04/09 07:45:14;;;;;;;23.30;14.07;;;8.90;34.90;;;;;;5048779;28;21115;-63
2023/04/09 07:47:41;;;;;;;22.13;14.27;;;8.90;31.20;;;;;;5044614;28;20499;-63
2023/04/09 07:50:09;;;;;;;25.40;14.60;;;8.90;27.90;;;;;;5047223;28;20219;-63
2023/04/09 07:52:36;;;;;;;21.00;12.75;;;9.00;24.60;;;;;;5057443;28;20226;-63
2023/04/09 07:55:03;;;;;;;23.23;13.33;;;9.00;20.20;;;;;;5043223;28;20227;-63
2023/04/09 07:57:31;;;;;;;25.95;14.15;;;9.00;15.50;;;;;;5013606;28;20232;-63
2023/04/09 07:59:58;;;;;;;21.75;13.52;;;9.00;13.20;;;;;;5044483;28;20577;-63
2023/04/09 08:02:27;;;;;;;22.90;12.55;;;9.10;15.80;;;;;;4997572;28;20223;-63
2023/04/09 08:04:54;;;;;;;23.83;13.75;;;9.10;14.80;;;;;;5023702;28;20215;-63
2023/04/09 08:07:21;;;;;;;22.63;13.85;;;9.10;12.00;;;;;;5039221;28;20237;-63
2023/04/09 08:09:48;;;;;;;24.70;13.95;;;9.10;8.60;;;;;;5037836;28;20220;-63
2023/04/09 08:12:15;;;;;;;20.60;12.88;;;9.20;4.60;;;;;;5013645;28;20273;-63
2023/04/09 08:14:42;;;;;;;25.45;13.57;;;9.20;7.80;;;;;;5050312;28;20224;-63
2023/04/09 08:17:09;;;;;;;23.35;13.23;;;9.30;2.50;;;;;;5008465;28;21180;-63
2023/04/09 08:19:37;;;;;;;24.20;13.07;;;9.30;1.00;;;;;;5038505;28;20220;-63
2023/04/09 08:22:05;;;;;;;22.65;12.57;;;9.30;1.00;;;;;;5056597;28;20716;-63
2023/04/09 08:24:33;;;;;;;20.25;12.43;;;9.30;1.00;;;;;;4992988;28;20713;-64
2023/04/09 08:27:00;;;;;;;22.92;13.43;;;9.40;1.00;;;;;;4998979;28;20865;-64
2023/04/09 08:29:27;;;;;;;22.42;14.20;;;9.50;1.00;;;;;;5039425;28;20222;-64
2023/04/09 08:31:54;;;;;;;22.77;13.10;;;9.50;1.00;;;;;;5013230;28;20944;-64
2023/04/09 08:34:21;;;;;;;19.70;13.05;;;9.50;1.00;;;;;;5012531;28;20708;-64
2023/04/09 08:36:50;;;;;;;26.38;13.68;;;9.60;1.00;;;;;;5048363;28;20228;-64
2023/04/09 08:39:17;;;;;;;19.83;13.35;;;9.70;1.00;;;;;;5031684;28;20200;-64
2023/04/09 08:41:46;;;;;;;23.00;13.60;;;9.60;1.00;;;;;;5013526;28;20658;-64
2023/04/09 08:44:13;;;;;;;22.60;13.50;;;9.70;1.00;;;;;;5032205;28;20856;-64
2023/04/09 08:46:40;;;;;;;21.60;13.38;;;9.80;1.00;;;;;;5000269;28;20246;-64
2023/04/09 08:49:09;;;;;;;21.38;12.88;;;9.80;1.00;;;;;;5027628;28;20242;-64
2023/04/09 08:51:36;;;;;;;20.30;12.63;;;9.90;1.00;;;;;;5023162;28;20628;-64
2023/04/09 08:54:04;;;;;;;20.38;13.20;;;9.90;1.00;;;;;;5037668;28;20787;-64
2023/04/09 08:56:31;;;;;;;18.75;12.13;;;9.90;1.00;;;;;;5026565;28;20231;-64
2023/04/09 08:58:58;;;;;;;19.63;12.02;;;9.80;1.00;;;;;;5010713;28;20436;-64
2023/04/09 09:01:27;;;;;;;21.05;13.75;;;9.80;1.00;;;;;;5036511;28;20217;-64
2023/04/09 09:03:59;;;;;;;21.10;12.50;;;9.80;1.00;;;;;;5014608;28;20769;-64
2023/04/09 09:06:28;;;;;;;17.00;11.80;;;9.80;1.00;;;;;;5042133;28;20235;-64
2023/04/09 09:09:07;;;;;;;20.55;12.18;;;9.80;1.00;;;;;;5030502;28;20584;-64
2023/04/09 09:11:35;;;;;;;22.13;13.88;;;9.80;1.00;;;;;;5004857;28;20228;-64
2023/04/09 09:14:03;;;;;;;22.95;13.40;;;9.60;1.00;;;;;;5018821;28;20482;-64
2023/04/09 09:16:32;;;;;;;22.15;11.88;;;9.60;1.00;;;;;;5025963;28;20687;-65
2023/04/09 09:18:59;;;;;;;24.75;13.45;;;9.50;1.00;;;;;;5024497;28;20840;-64
2023/04/09 09:21:28;;;;;;;19.75;12.52;;;9.70;1.00;;;;;;5034345;28;20200;-64
2023/04/09 09:23:56;;;;;;;25.05;12.98;;;10.00;1.00;;;;;;5030519;28;20501;-64
2023/04/09 09:26:26;;;;;;;21.33;12.40;;;10.10;1.00;;;;;;5034672;28;20200;-64
2023/04/09 09:28:54;;;;;;;21.85;12.52;;;10.20;1.00;;;;;;5011509;28;20403;-64
2023/04/09 09:31:22;;;;;;;19.30;12.00;;;10.20;1.00;;;;;;5026787;28;20257;-64
2023/04/09 09:33:50;;;;;;;20.38;12.15;;;10.20;1.00;;;;;;5032047;28;20517;-64
2023/04/09 09:36:31;;;;;;;23.40;12.77;;;10.20;1.00;;;;;;5020209;28;20224;-64
2023/04/09 09:39:02;;;;;;;22.05;12.10;;;10.30;1.00;;;;;;5044608;28;20231;-64
2023/04/09 09:41:30;;;;;;;20.13;12.80;;;10.40;1.00;;;;;;5030848;28;20200;-64
2023/04/09 09:43:57;;;;;;;23.17;13.20;;;10.40;1.00;;;;;;5027771;28;20308;-64
2023/04/09 09:46:26;;;;;;;18.30;12.35;;;10.50;1.00;;;;;;5037563;28;20200;-63
2023/04/09 09:48:53;;;;;;;21.50;12.48;;;10.50;1.00;;;;;;5016887;28;20396;-64
2023/04/09 09:51:26;;;;;;;16.98;11.98;;;10.50;1.00;;;;;;5035492;28;20665;-64
2023/04/09 09:53:55;;;;;;;17.23;11.68;;;10.60;1.00;;;;;;5037944;28;20224;-64
2023/04/09 09:56:25;;;;;;;21.42;12.38;;;10.70;1.00;;;;;;5030829;28;20239;-64
2023/04/09 09:59:03;;;;;;;21.00;12.55;;;10.70;1.00;;;;;;5010316;28;20638;-64
2023/04/09 10:01:30;;;;;;;19.25;12.80;;;10.50;1.00;;;;;;5028315;28;20645;-64
2023/04/09 10:04:00;;;;;;;19.48;11.75;;;10.70;1.00;;;;;;5022790;28;20620;-64
2023/04/09 10:06:29;;;;;;;20.52;12.45;;;10.70;1.00;;;;;;5035436;28;20211;-64
2023/04/09 10:08:58;;;;;;;17.98;12.05;;;10.80;1.00;;;;;;5035329;28;20851;-64
2023/04/09 10:11:26;;;;;;;20.00;13.68;;;10.90;1.00;;;;;;5039371;28;20495;-64
2023/04/09 10:13:57;;;;;;;21.67;12.15;;;10.90;1.00;;;;;;5018617;28;20212;-64
2023/04/09 10:16:25;;;;;;;16.77;10.82;;;11.10;1.00;;;;;;5021376;28;20510;-64
2023/04/09 10:18:53;;;;;;;16.58;11.02;;;11.10;1.00;;;;;;5011404;28;21639;-64
2023/04/09 10:21:30;;;;;;;18.23;12.80;;;11.20;1.00;;;;;;5012432;28;20584;-64
2023/04/09 10:23:58;;;;;;;20.15;11.15;;;11.20;1.00;;;;;;5038097;28;20805;-64
2023/04/09 10:26:29;;;;;;;16.23;11.25;;;11.20;1.00;;;;;;5024766;28;20228;-64
2023/04/09 10:29:08;;;;;;;21.73;13.27;;;11.20;1.00;;;;;;5006005;28;20266;-64
2023/04/09 10:31:51;;;;;;;22.70;12.77;;;11.30;1.00;;;;;;5033025;28;20231;-64
2023/04/09 10:34:19;;;;;;;17.70;12.23;;;11.30;1.00;;;;;;5032500;28;20421;-64
2023/04/09 10:36:50;;;;;;;19.98;12.50;;;11.40;1.00;;;;;;5035213;28;20935;-64
2023/04/09 10:39:17;;;;;;;20.45;11.85;;;11.30;1.00;;;;;;5041055;28;20717;-64
2023/04/09 10:41:46;;;;;;;18.52;11.70;;;11.30;1.00;;;;;;5046199;28;20212;-64
2023/04/09 10:44:25;;;;;;;19.80;11.40;;;11.30;1.00;;;;;;5034513;28;20196;-64
2023/04/09 10:46:53;;;;;;;19.63;12.18;;;11.40;1.00;;;;;;5049384;28;20342;-64
2023/04/09 10:49:21;;;;;;;21.65;13.32;;;11.50;1.00;;;;;;5049271;28;20205;-64
2023/04/09 10:51:51;;;;;;;22.40;12.60;;;11.60;1.00;;;;;;5035532;28;21656;-65
2023/04/09 10:54:46;;;;;;;17.58;11.43;;;11.60;1.00;;;;;;5059372;28;20203;-63
2023/04/09 10:57:15;;;;;;;18.65;12.60;;;11.60;1.00;;;;;;5043995;28;20196;-64
2023/04/09 10:59:45;;;;;;;19.90;12.68;;;11.50;99.90;;;;;;5017504;28;20224;-64
2023/04/09 11:02:48;;;;;;;16.70;11.43;;;11.50;1.00;;;;;;5048001;28;20199;-64
2023/04/09 11:05:22;;;;;;;18.45;11.88;;;11.60;1.00;;;;;;5032643;28;20212;-64
2023/04/09 11:07:54;;;;;;;18.70;12.50;;;11.80;1.00;;;;;;5037696;28;21001;-64
2023/04/09 11:10:21;;;;;;;19.63;12.57;;;11.80;1.00;;;;;;5018334;28;20451;-64
2023/04/09 11:12:48;;;;;;;17.50;11.10;;;11.80;1.00;;;;;;5020027;28;20662;-63
2023/04/09 11:15:18;;;;;;;17.70;11.70;;;11.90;1.00;;;;;;5016507;28;20503;-64
2023/04/09 11:17:45;;;;;;;19.23;12.70;;;11.80;1.00;;;;;;5048136;28;20226;-64
2023/04/09 11:20:14;;;;;;;18.45;12.05;;;11.80;1.00;;;;;;5032508;28;20755;-64
2023/04/09 11:22:41;;;;;;;19.05;12.35;;;11.80;99.90;;;;;;5038212;28;20587;-65
2023/04/09 11:25:08;;;;;;;19.23;11.90;;;11.90;99.90;;;;;;5029195;28;20326;-64
2023/04/09 11:27:38;;;;;;;20.60;11.98;;;11.90;99.90;;;;;;5039260;28;20766;-64
2023/04/09 11:30:06;;;;;;;18.02;11.20;;;12.00;99.90;;;;;;5001882;28;20761;-64
2023/04/09 11:32:34;;;;;;;18.70;12.20;;;12.00;99.90;;;;;;5049577;28;20424;-63
2023/04/09 11:35:02;;;;;;;14.65;10.30;;;12.10;99.90;;;;;;5053446;28;20207;-64
2023/04/09 11:37:29;;;;;;;16.65;11.40;;;12.10;99.90;;;;;;5011606;28;20232;-64
2023/04/09 11:39:57;;;;;;;19.42;11.90;;;12.10;99.90;;;;;;5024397;28;20314;-64
2023/04/09 11:42:25;;;;;;;16.33;10.93;;;12.10;99.90;;;;;;5026179;28;20804;-64
2023/04/09 11:44:53;;;;;;;17.50;11.40;;;12.10;99.90;;;;;;4999309;28;20223;-64
2023/04/09 11:47:21;;;;;;;19.83;12.65;;;12.10;99.90;;;;;;5050619;28;20742;-64
2023/04/09 11:49:49;;;;;;;14.77;10.45;;;12.10;99.90;;;;;;5044649;28;20647;-64
2023/04/09 11:52:16;;;;;;;16.08;10.80;;;12.10;99.90;;;;;;5042278;28;20212;-64
2023/04/09 11:54:49;;;;;;;15.98;11.70;;;12.20;99.90;;;;;;5024675;28;20412;-64
2023/04/09 11:57:16;;;;;;;19.80;12.07;;;12.20;99.90;;;;;;5049678;28;20289;-64
2023/04/09 11:59:43;;;;;;;16.75;11.02;;;12.40;99.90;;;;;;4987797;28;20337;-64
2023/04/09 12:02:09;;;;;;;17.58;10.88;;;12.30;1.00;;;;;;5042979;28;20302;-64
2023/04/09 12:04:36;;;;;;;15.18;10.23;;;12.40;1.00;;;;;;5034956;28;20204;-64
2023/04/09 12:07:09;;;;;;;18.90;11.48;;;12.40;1.00;;;;;;5041896;28;20531;-64
2023/04/09 12:09:47;;;;;;;13.50;10.73;;;12.40;1.00;;;;;;5031531;28;20292;-64
2023/04/09 12:12:18;;;;;;;14.75;10.68;;;12.50;1.00;;;;;;5044575;28;20196;-64
2023/04/09 12:14:47;;;;;;;14.40;10.48;;;12.70;1.00;;;;;;5022710;28;20648;-64
2023/04/09 12:17:14;;;;;;;18.65;11.77;;;12.70;1.00;;;;;;5026300;28;20207;-64
2023/04/09 12:19:41;;;;;;;19.25;11.40;;;12.70;1.00;;;;;;5045659;28;20434;-64
2023/04/09 12:22:09;;;;;;;17.10;11.88;;;12.70;99.90;;;;;;5038551;28;20200;-64
2023/04/09 12:24:36;;;;;;;16.58;11.77;;;12.70;99.90;;;;;;5027942;28;20212;-64
2023/04/09 12:27:03;;;;;;;16.55;11.10;;;12.70;99.90;;;;;;5039745;28;20204;-64
2023/04/09 12:29:30;;;;;;;18.38;11.63;;;12.80;1.00;;;;;;5030714;28;20224;-64
2023/04/09 12:31:57;;;;;;;21.48;10.40;;;12.70;44.60;;;;;;5012635;28;20235;-64
2023/04/09 12:34:26;;;;;;;16.98;10.65;;;12.70;1.00;;;;;;5035205;28;20200;-64
2023/04/09 12:36:52;;;;;;;15.63;10.60;;;12.70;99.90;;;;;;5032842;28;20460;-64
2023/04/09 12:39:21;;;;;;;16.23;11.20;;;12.70;99.90;;;;;;5037042;28;20239;-64
2023/04/09 12:41:48;;;;;;;16.35;11.35;;;12.70;99.90;;;;;;5030302;28;20208;-64
2023/04/09 12:44:14;;;;;;;15.43;10.38;;;12.70;99.90;;;;;;5037452;28;20204;-64